This is the latest recevied weather packets stored in our database for station/object F4KMN-9. If no packets are shown the sender has not sent any weather packets the latest 10 day(s).
| Time | Temp. | Humidity | Pressure | Rain* | Wind** | Luminosity | Snow |
|---|---|---|---|---|---|---|---|
| 1778137730 | 20.56° C | 50% | 1015 hPa | - | - | - | - |
| 1778137422 | 27.78° C | 35% | 969.6 hPa | - | - | - | - |
| 1778137392 | 27.78° C | 35% | 969.7 hPa | - | - | - | - |
| 1778137362 | 27.78° C | 35% | 969.7 hPa | - | - | - | - |
| 1778137332 | 27.78° C | 35% | 969.8 hPa | - | - | - | - |
| 1778137302 | 27.22° C | 35% | 969.8 hPa | - | - | - | - |
| 1778137272 | 27.22° C | 35% | 969.9 hPa | - | - | - | - |
| 1778137242 | 27.22° C | 35% | 969.8 hPa | - | - | - | - |
| 1778137212 | 27.22° C | 35% | 969.7 hPa | - | - | - | - |
| 1778137152 | 27.22° C | 35% | 969.6 hPa | - | - | - | - |
| 1778137092 | 27.22° C | 35% | 969.8 hPa | - | - | - | - |
| 1778137032 | 27.22° C | 35% | 969.8 hPa | - | - | - | - |
| 1778137002 | 27.22° C | 34% | 969.8 hPa | - | - | - | - |
| 1778136972 | 27.22° C | 34% | 969.6 hPa | - | - | - | - |
| 1778136912 | 27.22° C | 34% | 969.5 hPa | - | - | - | - |
| 1778136882 | 27.22° C | 60% | 969.5 hPa | - | - | - | - |
| 1778136852 | 27.22° C | 100% | 1100 hPa | - | - | - | - |
| 1778136163 | 27.22° C | 100% | 1100 hPa | - | - | - | - |
| 1778135402 | 27.22° C | 35% | 970 hPa | - | - | - | - |
| 1778135372 | 27.22° C | 35% | 969.9 hPa | - | - | - | - |
| 1778135342 | 27.22° C | 35% | 970.1 hPa | - | - | - | - |
| 1778135312 | 27.22° C | 35% | 970 hPa | - | - | - | - |
| 1778135252 | 27.22° C | 35% | 970 hPa | - | - | - | - |
| 1778135222 | 27.22° C | 35% | 970 hPa | - | - | - | - |
| 1778135192 | 27.22° C | 35% | 970.2 hPa | - | - | - | - |
* Rain since midnight (hover to see other rain measurements)
** Current wind speed in m/s (hover to see current wind gust speed)